sensor_id;sensor_type;location;lat;lon;timestamp;temperature;humidity
68215;DHT22;55036;52.138;5.236;2023-10-08T00:02:46;19.70;84.20
68215;DHT22;55036;52.138;5.236;2023-10-08T00:05:13;19.80;84.20
68215;DHT22;55036;52.138;5.236;2023-10-08T00:07:43;19.70;84.10
68215;DHT22;55036;52.138;5.236;2023-10-08T00:10:10;19.70;84.10
68215;DHT22;55036;52.138;5.236;2023-10-08T00:12:37;19.70;84.20
68215;DHT22;55036;52.138;5.236;2023-10-08T00:15:04;19.70;84.20
68215;DHT22;55036;52.138;5.236;2023-10-08T00:17:33;19.70;84.10
68215;DHT22;55036;52.138;5.236;2023-10-08T00:20:00;19.70;84.10
68215;DHT22;55036;52.138;5.236;2023-10-08T00:22:27;19.60;84.40
68215;DHT22;55036;52.138;5.236;2023-10-08T00:24:57;19.70;84.40
68215;DHT22;55036;52.138;5.236;2023-10-08T00:27:24;19.60;84.40
68215;DHT22;55036;52.138;5.236;2023-10-08T00:29:51;19.60;84.40
68215;DHT22;55036;52.138;5.236;2023-10-08T00:32:18;19.60;84.40
68215;DHT22;55036;52.138;5.236;2023-10-08T00:34:44;19.60;84.40
68215;DHT22;55036;52.138;5.236;2023-10-08T00:37:12;19.60;84.60
68215;DHT22;55036;52.138;5.236;2023-10-08T00:39:42;19.60;84.90
68215;DHT22;55036;52.138;5.236;2023-10-08T00:42:09;19.60;84.80
68215;DHT22;55036;52.138;5.236;2023-10-08T01:20:15;19.40;85.20
68215;DHT22;55036;52.138;5.236;2023-10-08T01:23:10;19.30;85.00
68215;DHT22;55036;52.138;5.236;2023-10-08T01:25:44;19.30;85.30
68215;DHT22;55036;52.138;5.236;2023-10-08T01:28:37;19.30;85.50
68215;DHT22;55036;52.138;5.236;2023-10-08T01:31:04;19.30;85.50
68215;DHT22;55036;52.138;5.236;2023-10-08T01:33:31;19.30;85.60
68215;DHT22;55036;52.138;5.236;2023-10-08T01:36:02;19.30;85.60
68215;DHT22;55036;52.138;5.236;2023-10-08T01:38:31;19.30;85.70
68215;DHT22;55036;52.138;5.236;2023-10-08T01:41:02;19.30;86.00
68215;DHT22;55036;52.138;5.236;2023-10-08T01:43:46;19.30;85.80
68215;DHT22;55036;52.138;5.236;2023-10-08T01:46:14;19.20;86.00
68215;DHT22;55036;52.138;5.236;2023-10-08T01:48:42;19.20;86.00
68215;DHT22;55036;52.138;5.236;2023-10-08T01:51:12;19.30;86.20
68215;DHT22;55036;52.138;5.236;2023-10-08T01:53:50;19.30;86.30
68215;DHT22;55036;52.138;5.236;2023-10-08T01:56:17;19.20;86.10
68215;DHT22;55036;52.138;5.236;2023-10-08T01:58:44;19.30;86.20
68215;DHT22;55036;52.138;5.236;2023-10-08T02:01:13;19.20;86.20
68215;DHT22;55036;52.138;5.236;2023-10-08T02:03:39;19.20;86.50
68215;DHT22;55036;52.138;5.236;2023-10-08T02:06:08;19.20;87.60
68215;DHT22;55036;52.138;5.236;2023-10-08T02:08:35;19.20;86.70
68215;DHT22;55036;52.138;5.236;2023-10-08T02:11:03;19.20;86.70
68215;DHT22;55036;52.138;5.236;2023-10-08T02:13:30;19.20;86.60
68215;DHT22;55036;52.138;5.236;2023-10-08T02:16:01;19.20;86.60
68215;DHT22;55036;52.138;5.236;2023-10-08T02:18:28;19.20;87.10
68215;DHT22;55036;52.138;5.236;2023-10-08T02:20:58;19.20;87.10
68215;DHT22;55036;52.138;5.236;2023-10-08T02:23:25;19.20;87.20
68215;DHT22;55036;52.138;5.236;2023-10-08T02:25:52;19.20;87.30
68215;DHT22;55036;52.138;5.236;2023-10-08T02:28:21;19.10;87.50
68215;DHT22;55036;52.138;5.236;2023-10-08T02:30:50;19.10;88.10
68215;DHT22;55036;52.138;5.236;2023-10-08T02:33:17;19.00;88.80
68215;DHT22;55036;52.138;5.236;2023-10-08T02:35:46;19.00;88.30
68215;DHT22;55036;52.138;5.236;2023-10-08T02:38:16;19.10;88.10
68215;DHT22;55036;52.138;5.236;2023-10-08T02:40:44;19.10;88.10
68215;DHT22;55036;52.138;5.236;2023-10-08T02:43:15;19.10;88.10
68215;DHT22;55036;52.138;5.236;2023-10-08T02:45:43;19.10;88.20
68215;DHT22;55036;52.138;5.236;2023-10-08T02:48:14;19.10;88.10
68215;DHT22;55036;52.138;5.236;2023-10-08T02:50:42;19.00;89.10
68215;DHT22;55036;52.138;5.236;2023-10-08T02:53:12;18.90;88.90
68215;DHT22;55036;52.138;5.236;2023-10-08T02:55:39;18.90;89.50
68215;DHT22;55036;52.138;5.236;2023-10-08T02:58:11;18.90;89.50
68215;DHT22;55036;52.138;5.236;2023-10-08T03:00:42;18.90;89.30
68215;DHT22;55036;52.138;5.236;2023-10-08T03:03:09;18.90;89.60
68215;DHT22;55036;52.138;5.236;2023-10-08T03:08:11;18.90;89.50
68215;DHT22;55036;52.138;5.236;2023-10-08T03:10:40;18.90;89.30
68215;DHT22;55036;52.138;5.236;2023-10-08T03:13:08;18.90;89.30
68215;DHT22;55036;52.138;5.236;2023-10-08T03:15:37;19.00;89.30
68215;DHT22;55036;52.138;5.236;2023-10-08T03:18:14;18.90;90.00
68215;DHT22;55036;52.138;5.236;2023-10-08T03:20:44;19.00;89.20
68215;DHT22;55036;52.138;5.236;2023-10-08T03:23:13;18.90;89.10
68215;DHT22;55036;52.138;5.236;2023-10-08T03:25:51;18.90;89.50
68215;DHT22;55036;52.138;5.236;2023-10-08T03:28:23;18.90;89.50
68215;DHT22;55036;52.138;5.236;2023-10-08T03:30:52;18.90;89.40
68215;DHT22;55036;52.138;5.236;2023-10-08T03:33:32;18.90;89.40
68215;DHT22;55036;52.138;5.236;2023-10-08T03:36:02;18.80;89.60
68215;DHT22;55036;52.138;5.236;2023-10-08T03:38:48;18.70;90.20
68215;DHT22;55036;52.138;5.236;2023-10-08T03:41:22;18.70;90.20
68215;DHT22;55036;52.138;5.236;2023-10-08T03:43:55;18.70;90.30
68215;DHT22;55036;52.138;5.236;2023-10-08T03:46:29;18.70;90.10
68215;DHT22;55036;52.138;5.236;2023-10-08T03:48:57;18.80;90.10
68215;DHT22;55036;52.138;5.236;2023-10-08T03:51:24;18.80;90.00
68215;DHT22;55036;52.138;5.236;2023-10-08T03:53:54;18.80;89.90
68215;DHT22;55036;52.138;5.236;2023-10-08T03:56:28;18.80;90.00
68215;DHT22;55036;52.138;5.236;2023-10-08T03:58:58;18.80;89.80
68215;DHT22;55036;52.138;5.236;2023-10-08T04:01:37;18.80;89.80
68215;DHT22;55036;52.138;5.236;2023-10-08T04:04:06;18.80;89.90
68215;DHT22;55036;52.138;5.236;2023-10-08T04:06:39;18.80;90.00
68215;DHT22;55036;52.138;5.236;2023-10-08T04:09:06;18.60;90.60
68215;DHT22;55036;52.138;5.236;2023-10-08T04:11:37;18.60;90.80
68215;DHT22;55036;52.138;5.236;2023-10-08T04:14:24;18.60;90.50
68215;DHT22;55036;52.138;5.236;2023-10-08T04:16:52;18.60;90.50
68215;DHT22;55036;52.138;5.236;2023-10-08T04:19:20;18.60;90.70
68215;DHT22;55036;52.138;5.236;2023-10-08T04:21:47;18.60;90.60
68215;DHT22;55036;52.138;5.236;2023-10-08T04:24:25;18.60;90.70
68215;DHT22;55036;52.138;5.236;2023-10-08T04:26:56;18.40;91.00
68215;DHT22;55036;52.138;5.236;2023-10-08T04:29:25;18.30;90.30
68215;DHT22;55036;52.138;5.236;2023-10-08T04:31:52;18.10;88.20
68215;DHT22;55036;52.138;5.236;2023-10-08T04:34:31;17.80;89.30
68215;DHT22;55036;52.138;5.236;2023-10-08T04:36:59;17.70;90.00
68215;DHT22;55036;52.138;5.236;2023-10-08T04:39:39;17.70;90.00
68215;DHT22;55036;52.138;5.236;2023-10-08T04:42:13;17.70;89.60
68215;DHT22;55036;52.138;5.236;2023-10-08T04:44:40;17.50;89.30
68215;DHT22;55036;52.138;5.236;2023-10-08T04:47:07;17.50;89.30
68215;DHT22;55036;52.138;5.236;2023-10-08T04:49:35;17.40;88.50
68215;DHT22;55036;52.138;5.236;2023-10-08T04:52:07;17.30;89.10
68215;DHT22;55036;52.138;5.236;2023-10-08T04:54:45;17.30;89.50
68215;DHT22;55036;52.138;5.236;2023-10-08T04:57:19;17.30;89.60
68215;DHT22;55036;52.138;5.236;2023-10-08T04:59:49;17.30;89.50
68215;DHT22;55036;52.138;5.236;2023-10-08T05:02:24;17.20;89.20
68215;DHT22;55036;52.138;5.236;2023-10-08T05:05:16;17.20;89.20
68215;DHT22;55036;52.138;5.236;2023-10-08T05:07:43;17.30;89.30
68215;DHT22;55036;52.138;5.236;2023-10-08T05:10:14;17.30;88.70
68215;DHT22;55036;52.138;5.236;2023-10-08T05:12:50;17.30;88.60
68215;DHT22;55036;52.138;5.236;2023-10-08T05:15:28;17.20;88.20
68215;DHT22;55036;52.138;5.236;2023-10-08T05:18:08;17.10;87.70
68215;DHT22;55036;52.138;5.236;2023-10-08T05:20:51;17.00;88.30
68215;DHT22;55036;52.138;5.236;2023-10-08T05:23:19;16.90;88.30
68215;DHT22;55036;52.138;5.236;2023-10-08T05:25:53;16.90;87.90
68215;DHT22;55036;52.138;5.236;2023-10-08T05:28:39;16.80;89.90
68215;DHT22;55036;52.138;5.236;2023-10-08T05:31:24;16.80;88.60
68215;DHT22;55036;52.138;5.236;2023-10-08T05:34:10;16.70;89.00
68215;DHT22;55036;52.138;5.236;2023-10-08T05:36:55;16.80;88.70
68215;DHT22;55036;52.138;5.236;2023-10-08T05:39:31;16.90;88.50
68215;DHT22;55036;52.138;5.236;2023-10-08T05:42:09;16.80;87.90
68215;DHT22;55036;52.138;5.236;2023-10-08T05:44:46;16.80;87.30
68215;DHT22;55036;52.138;5.236;2023-10-08T05:47:33;16.70;87.40
68215;DHT22;55036;52.138;5.236;2023-10-08T05:50:01;16.60;87.50
68215;DHT22;55036;52.138;5.236;2023-10-08T05:52:44;16.50;87.80
68215;DHT22;55036;52.138;5.236;2023-10-08T05:55:19;16.50;88.10
68215;DHT22;55036;52.138;5.236;2023-10-08T05:57:54;16.40;88.70
68215;DHT22;55036;52.138;5.236;2023-10-08T06:00:59;16.30;89.00
68215;DHT22;55036;52.138;5.236;2023-10-08T06:03:34;16.20;88.80
68215;DHT22;55036;52.138;5.236;2023-10-08T06:06:20;16.10;89.10
68215;DHT22;55036;52.138;5.236;2023-10-08T06:08:47;16.00;90.00
68215;DHT22;55036;52.138;5.236;2023-10-08T06:11:48;15.80;90.20
68215;DHT22;55036;52.138;5.236;2023-10-08T06:14:36;15.80;90.20
68215;DHT22;55036;52.138;5.236;2023-10-08T06:17:19;15.90;90.20
68215;DHT22;55036;52.138;5.236;2023-10-08T06:20:12;16.00;89.80
68215;DHT22;55036;52.138;5.236;2023-10-08T06:22:43;15.90;89.20
68215;DHT22;55036;52.138;5.236;2023-10-08T06:25:11;15.80;89.60
68215;DHT22;55036;52.138;5.236;2023-10-08T06:27:44;15.70;90.10
68215;DHT22;55036;52.138;5.236;2023-10-08T06:30:12;15.70;90.00
68215;DHT22;55036;52.138;5.236;2023-10-08T06:32:44;15.70;89.10
68215;DHT22;55036;52.138;5.236;2023-10-08T06:35:12;15.60;89.90
68215;DHT22;55036;52.138;5.236;2023-10-08T06:37:45;15.70;89.40
68215;DHT22;55036;52.138;5.236;2023-10-08T06:40:12;15.70;89.30
68215;DHT22;55036;52.138;5.236;2023-10-08T06:42:58;15.60;89.60
68215;DHT22;55036;52.138;5.236;2023-10-08T06:45:30;15.60;90.20
68215;DHT22;55036;52.138;5.236;2023-10-08T06:47:57;15.60;88.50
68215;DHT22;55036;52.138;5.236;2023-10-08T06:50:24;15.60;88.20
68215;DHT22;55036;52.138;5.236;2023-10-08T06:52:51;15.60;87.80
68215;DHT22;55036;52.138;5.236;2023-10-08T06:55:18;15.50;87.80
68215;DHT22;55036;52.138;5.236;2023-10-08T06:57:46;15.50;87.40
68215;DHT22;55036;52.138;5.236;2023-10-08T07:00:14;15.50;88.00
68215;DHT22;55036;52.138;5.236;2023-10-08T07:03:01;15.50;87.70
68215;DHT22;55036;52.138;5.236;2023-10-08T07:05:29;15.50;86.60
68215;DHT22;55036;52.138;5.236;2023-10-08T07:07:56;15.40;87.30
68215;DHT22;55036;52.138;5.236;2023-10-08T07:10:23;15.40;87.80
68215;DHT22;55036;52.138;5.236;2023-10-08T07:12:49;15.40;87.90
68215;DHT22;55036;52.138;5.236;2023-10-08T07:15:19;15.50;86.80
68215;DHT22;55036;52.138;5.236;2023-10-08T07:17:50;15.50;87.30
68215;DHT22;55036;52.138;5.236;2023-10-08T07:20:18;15.50;87.90
68215;DHT22;55036;52.138;5.236;2023-10-08T07:22:48;15.40;87.70
68215;DHT22;55036;52.138;5.236;2023-10-08T07:25:21;15.60;86.40
68215;DHT22;55036;52.138;5.236;2023-10-08T07:27:48;15.60;86.30
68215;DHT22;55036;52.138;5.236;2023-10-08T07:30:15;15.70;86.20
68215;DHT22;55036;52.138;5.236;2023-10-08T07:32:53;15.60;86.40
68215;DHT22;55036;52.138;5.236;2023-10-08T07:35:24;15.60;86.50
68215;DHT22;55036;52.138;5.236;2023-10-08T07:37:53;15.60;86.60
68215;DHT22;55036;52.138;5.236;2023-10-08T07:40:20;15.70;85.70
68215;DHT22;55036;52.138;5.236;2023-10-08T07:42:47;15.70;86.20
68215;DHT22;55036;52.138;5.236;2023-10-08T07:45:18;15.70;86.50
68215;DHT22;55036;52.138;5.236;2023-10-08T07:47:48;15.70;85.60
68215;DHT22;55036;52.138;5.236;2023-10-08T07:50:15;15.80;85.20
68215;DHT22;55036;52.138;5.236;2023-10-08T07:52:42;15.90;84.00
68215;DHT22;55036;52.138;5.236;2023-10-08T07:55:11;15.80;84.10
68215;DHT22;55036;52.138;5.236;2023-10-08T07:57:44;15.80;84.00
68215;DHT22;55036;52.138;5.236;2023-10-08T08:00:12;15.80;84.40
68215;DHT22;55036;52.138;5.236;2023-10-08T08:02:50;15.80;84.00
68215;DHT22;55036;52.138;5.236;2023-10-08T08:05:19;15.70;84.60
68215;DHT22;55036;52.138;5.236;2023-10-08T08:07:47;15.70;84.70
68215;DHT22;55036;52.138;5.236;2023-10-08T08:10:16;15.80;85.00
68215;DHT22;55036;52.138;5.236;2023-10-08T08:12:47;15.70;85.00
68215;DHT22;55036;52.138;5.236;2023-10-08T08:15:18;15.70;85.30
68215;DHT22;55036;52.138;5.236;2023-10-08T08:17:44;15.80;85.00
68215;DHT22;55036;52.138;5.236;2023-10-08T08:20:15;15.90;84.70
68215;DHT22;55036;52.138;5.236;2023-10-08T08:22:44;16.00;84.40
68215;DHT22;55036;52.138;5.236;2023-10-08T08:25:20;16.00;84.50
68215;DHT22;55036;52.138;5.236;2023-10-08T08:28:00;15.90;85.10
68215;DHT22;55036;52.138;5.236;2023-10-08T08:30:27;15.90;85.00
68215;DHT22;55036;52.138;5.236;2023-10-08T08:32:54;16.00;84.20
68215;DHT22;55036;52.138;5.236;2023-10-08T08:35:23;16.00;84.30
68215;DHT22;55036;52.138;5.236;2023-10-08T08:37:51;16.10;84.50
68215;DHT22;55036;52.138;5.236;2023-10-08T08:40:18;16.20;83.60
68215;DHT22;55036;52.138;5.236;2023-10-08T08:42:47;16.10;83.80
68215;DHT22;55036;52.138;5.236;2023-10-08T08:45:22;16.20;83.40
68215;DHT22;55036;52.138;5.236;2023-10-08T08:47:49;16.10;83.30
68215;DHT22;55036;52.138;5.236;2023-10-08T08:50:16;16.20;83.70
68215;DHT22;55036;52.138;5.236;2023-10-08T08:52:45;16.20;83.90
68215;DHT22;55036;52.138;5.236;2023-10-08T08:55:14;16.30;83.80
68215;DHT22;55036;52.138;5.236;2023-10-08T08:57:46;16.40;83.10
68215;DHT22;55036;52.138;5.236;2023-10-08T09:00:14;16.30;82.50
68215;DHT22;55036;52.138;5.236;2023-10-08T09:02:42;16.40;82.60
68215;DHT22;55036;52.138;5.236;2023-10-08T09:05:11;16.50;82.30
68215;DHT22;55036;52.138;5.236;2023-10-08T09:07:58;16.50;81.60
68215;DHT22;55036;52.138;5.236;2023-10-08T09:10:26;16.70;82.80
68215;DHT22;55036;52.138;5.236;2023-10-08T09:12:57;16.90;81.50
68215;DHT22;55036;52.138;5.236;2023-10-08T09:15:28;16.90;82.10
68215;DHT22;55036;52.138;5.236;2023-10-08T09:17:56;16.80;79.10
68215;DHT22;55036;52.138;5.236;2023-10-08T09:20:23;16.80;80.60
68215;DHT22;55036;52.138;5.236;2023-10-08T09:23:14;16.80;80.30
68215;DHT22;55036;52.138;5.236;2023-10-08T09:25:45;16.80;80.10
68215;DHT22;55036;52.138;5.236;2023-10-08T09:28:17;16.80;81.50
68215;DHT22;55036;52.138;5.236;2023-10-08T09:30:44;16.80;80.60
68215;DHT22;55036;52.138;5.236;2023-10-08T09:33:13;16.90;81.00
68215;DHT22;55036;52.138;5.236;2023-10-08T09:35:41;16.90;79.60
68215;DHT22;55036;52.138;5.236;2023-10-08T09:38:10;16.90;79.40
68215;DHT22;55036;52.138;5.236;2023-10-08T09:40:39;16.90;80.40
68215;DHT22;55036;52.138;5.236;2023-10-08T09:43:11;16.90;79.50
68215;DHT22;55036;52.138;5.236;2023-10-08T09:45:43;17.00;80.90
68215;DHT22;55036;52.138;5.236;2023-10-08T09:48:16;17.10;79.80
68215;DHT22;55036;52.138;5.236;2023-10-08T09:50:45;17.00;79.30
68215;DHT22;55036;52.138;5.236;2023-10-08T09:53:13;17.00;78.00
68215;DHT22;55036;52.138;5.236;2023-10-08T09:55:53;16.90;79.70
68215;DHT22;55036;52.138;5.236;2023-10-08T09:58:21;17.00;79.40
68215;DHT22;55036;52.138;5.236;2023-10-08T10:00:50;17.20;78.20
68215;DHT22;55036;52.138;5.236;2023-10-08T10:03:21;17.20;78.30
68215;DHT22;55036;52.138;5.236;2023-10-08T10:05:50;17.10;77.40
68215;DHT22;55036;52.138;5.236;2023-10-08T10:08:17;17.10;78.80
68215;DHT22;55036;52.138;5.236;2023-10-08T10:10:44;17.10;78.00
68215;DHT22;55036;52.138;5.236;2023-10-08T10:13:16;17.10;78.40
68215;DHT22;55036;52.138;5.236;2023-10-08T10:15:44;17.20;77.90
68215;DHT22;55036;52.138;5.236;2023-10-08T10:18:16;17.20;78.20
68215;DHT22;55036;52.138;5.236;2023-10-08T10:20:59;17.30;77.90
68215;DHT22;55036;52.138;5.236;2023-10-08T10:23:42;17.30;78.00
68215;DHT22;55036;52.138;5.236;2023-10-08T10:31:35;17.50;77.10
68215;DHT22;55036;52.138;5.236;2023-10-08T10:34:08;17.50;77.50
68215;DHT22;55036;52.138;5.236;2023-10-08T10:36:36;17.40;77.80
68215;DHT22;55036;52.138;5.236;2023-10-08T10:39:04;17.20;79.10
68215;DHT22;55036;52.138;5.236;2023-10-08T10:41:47;17.10;79.00
68215;DHT22;55036;52.138;5.236;2023-10-08T10:44:15;17.00;79.60
68215;DHT22;55036;52.138;5.236;2023-10-08T10:46:43;17.10;79.30
68215;DHT22;55036;52.138;5.236;2023-10-08T10:49:18;17.20;78.70
68215;DHT22;55036;52.138;5.236;2023-10-08T10:51:49;17.20;79.00
68215;DHT22;55036;52.138;5.236;2023-10-08T10:54:20;17.30;79.20
68215;DHT22;55036;52.138;5.236;2023-10-08T10:56:50;17.40;78.70
68215;DHT22;55036;52.138;5.236;2023-10-08T10:59:30;17.40;79.30
68215;DHT22;55036;52.138;5.236;2023-10-08T11:02:07;17.50;78.90
68215;DHT22;55036;52.138;5.236;2023-10-08T11:04:35;17.50;79.10
68215;DHT22;55036;52.138;5.236;2023-10-08T11:07:19;17.50;78.60
68215;DHT22;55036;52.138;5.236;2023-10-08T11:09:47;17.50;79.20
68215;DHT22;55036;52.138;5.236;2023-10-08T11:12:14;17.30;79.50
68215;DHT22;55036;52.138;5.236;2023-10-08T11:14:48;17.30;79.40
68215;DHT22;55036;52.138;5.236;2023-10-08T11:17:24;17.40;79.50
68215;DHT22;55036;52.138;5.236;2023-10-08T11:19:52;17.30;79.80
68215;DHT22;55036;52.138;5.236;2023-10-08T11:22:19;17.30;80.10
68215;DHT22;55036;52.138;5.236;2023-10-08T11:24:49;17.40;80.10
68215;DHT22;55036;52.138;5.236;2023-10-08T11:27:21;17.40;80.40
68215;DHT22;55036;52.138;5.236;2023-10-08T11:30:02;17.40;80.30
68215;DHT22;55036;52.138;5.236;2023-10-08T11:32:29;17.40;80.40
68215;DHT22;55036;52.138;5.236;2023-10-08T11:35:00;17.30;80.40
68215;DHT22;55036;52.138;5.236;2023-10-08T11:37:31;17.40;80.10
68215;DHT22;55036;52.138;5.236;2023-10-08T11:40:01;17.40;80.30
68215;DHT22;55036;52.138;5.236;2023-10-08T11:42:44;17.40;80.10
68215;DHT22;55036;52.138;5.236;2023-10-08T11:45:11;17.50;80.50
68215;DHT22;55036;52.138;5.236;2023-10-08T11:47:47;17.50;80.90
68215;DHT22;55036;52.138;5.236;2023-10-08T11:50:26;17.50;80.90
68215;DHT22;55036;52.138;5.236;2023-10-08T11:53:00;17.60;80.80
68215;DHT22;55036;52.138;5.236;2023-10-08T11:55:34;17.70;80.30
68215;DHT22;55036;52.138;5.236;2023-10-08T11:58:06;17.60;80.90
68215;DHT22;55036;52.138;5.236;2023-10-08T12:00:41;17.70;80.30
68215;DHT22;55036;52.138;5.236;2023-10-08T12:03:15;17.70;80.60
68215;DHT22;55036;52.138;5.236;2023-10-08T12:05:47;17.70;80.70
68215;DHT22;55036;52.138;5.236;2023-10-08T12:08:16;17.80;80.40
68215;DHT22;55036;52.138;5.236;2023-10-08T12:10:44;18.00;81.10
68215;DHT22;55036;52.138;5.236;2023-10-08T12:13:12;18.10;78.50
68215;DHT22;55036;52.138;5.236;2023-10-08T12:15:39;18.00;79.50
68215;DHT22;55036;52.138;5.236;2023-10-08T12:18:08;18.00;79.40
68215;DHT22;55036;52.138;5.236;2023-10-08T12:20:36;18.20;79.30
68215;DHT22;55036;52.138;5.236;2023-10-08T12:23:05;18.30;78.90
68215;DHT22;55036;52.138;5.236;2023-10-08T12:25:32;18.30;78.50
68215;DHT22;55036;52.138;5.236;2023-10-08T12:28:00;18.40;78.40
68215;DHT22;55036;52.138;5.236;2023-10-08T12:30:32;18.40;78.40
68215;DHT22;55036;52.138;5.236;2023-10-08T12:33:01;18.40;77.30
68215;DHT22;55036;52.138;5.236;2023-10-08T12:35:28;18.30;77.30
68215;DHT22;55036;52.138;5.236;2023-10-08T12:37:56;18.30;77.50
68215;DHT22;55036;52.138;5.236;2023-10-08T12:40:24;18.20;77.20
68215;DHT22;55036;52.138;5.236;2023-10-08T12:42:53;18.10;77.10
68215;DHT22;55036;52.138;5.236;2023-10-08T12:45:21;18.10;77.40
68215;DHT22;55036;52.138;5.236;2023-10-08T12:47:49;18.20;77.70
68215;DHT22;55036;52.138;5.236;2023-10-08T12:50:17;18.30;77.60
68215;DHT22;55036;52.138;5.236;2023-10-08T12:52:50;18.20;77.80
68215;DHT22;55036;52.138;5.236;2023-10-08T12:55:22;18.40;77.90
68215;DHT22;55036;52.138;5.236;2023-10-08T12:57:51;18.40;77.10
68215;DHT22;55036;52.138;5.236;2023-10-08T13:00:24;18.30;76.90
68215;DHT22;55036;52.138;5.236;2023-10-08T13:02:52;18.40;77.70
68215;DHT22;55036;52.138;5.236;2023-10-08T13:05:24;18.40;77.50
68215;DHT22;55036;52.138;5.236;2023-10-08T13:07:57;18.30;76.90
68215;DHT22;55036;52.138;5.236;2023-10-08T13:10:30;18.30;76.60
68215;DHT22;55036;52.138;5.236;2023-10-08T13:12:57;18.40;77.30
68215;DHT22;55036;52.138;5.236;2023-10-08T13:15:24;18.50;77.20
68215;DHT22;55036;52.138;5.236;2023-10-08T13:17:52;18.60;77.10
68215;DHT22;55036;52.138;5.236;2023-10-08T13:20:20;18.70;76.80
68215;DHT22;55036;52.138;5.236;2023-10-08T13:22:47;18.70;76.60
68215;DHT22;55036;52.138;5.236;2023-10-08T13:25:14;18.80;77.00
68215;DHT22;55036;52.138;5.236;2023-10-08T13:27:43;18.70;76.10
68215;DHT22;55036;52.138;5.236;2023-10-08T13:30:10;18.70;76.10
68215;DHT22;55036;52.138;5.236;2023-10-08T13:32:37;18.80;76.80
68215;DHT22;55036;52.138;5.236;2023-10-08T13:35:05;18.90;78.00
68215;DHT22;55036;52.138;5.236;2023-10-08T13:37:33;19.10;77.20
68215;DHT22;55036;52.138;5.236;2023-10-08T13:40:00;19.20;75.60
68215;DHT22;55036;52.138;5.236;2023-10-08T13:42:27;19.20;77.20
68215;DHT22;55036;52.138;5.236;2023-10-08T13:44:55;19.30;76.10
68215;DHT22;55036;52.138;5.236;2023-10-08T13:47:24;19.30;75.30
68215;DHT22;55036;52.138;5.236;2023-10-08T13:49:52;19.30;75.20
68215;DHT22;55036;52.138;5.236;2023-10-08T13:52:20;19.40;75.20
68215;DHT22;55036;52.138;5.236;2023-10-08T13:54:53;19.30;74.20
68215;DHT22;55036;52.138;5.236;2023-10-08T13:57:20;19.20;74.50
68215;DHT22;55036;52.138;5.236;2023-10-08T13:59:47;19.30;75.00
68215;DHT22;55036;52.138;5.236;2023-10-08T14:02:15;19.30;75.00
68215;DHT22;55036;52.138;5.236;2023-10-08T14:04:42;19.30;74.90
68215;DHT22;55036;52.138;5.236;2023-10-08T14:07:12;19.40;74.80
68215;DHT22;55036;52.138;5.236;2023-10-08T14:09:44;19.40;75.80
68215;DHT22;55036;52.138;5.236;2023-10-08T14:12:13;19.30;74.60
68215;DHT22;55036;52.138;5.236;2023-10-08T14:14:41;19.30;74.70
68215;DHT22;55036;52.138;5.236;2023-10-08T14:17:10;19.30;74.60
68215;DHT22;55036;52.138;5.236;2023-10-08T14:19:42;19.30;74.80
68215;DHT22;55036;52.138;5.236;2023-10-08T14:22:19;19.30;74.80
68215;DHT22;55036;52.138;5.236;2023-10-08T14:24:49;19.30;74.50
68215;DHT22;55036;52.138;5.236;2023-10-08T14:27:26;19.40;74.70
68215;DHT22;55036;52.138;5.236;2023-10-08T14:29:59;19.30;74.80
68215;DHT22;55036;52.138;5.236;2023-10-08T14:32:35;19.30;74.90
68215;DHT22;55036;52.138;5.236;2023-10-08T14:35:02;19.30;74.50
68215;DHT22;55036;52.138;5.236;2023-10-08T14:37:47;19.20;74.30
68215;DHT22;55036;52.138;5.236;2023-10-08T14:40:33;19.00;74.80
68215;DHT22;55036;52.138;5.236;2023-10-08T14:43:18;19.00;75.10
68215;DHT22;55036;52.138;5.236;2023-10-08T14:45:49;19.10;75.00
68215;DHT22;55036;52.138;5.236;2023-10-08T14:48:16;19.10;74.90
68215;DHT22;55036;52.138;5.236;2023-10-08T14:50:43;19.00;74.80
68215;DHT22;55036;52.138;5.236;2023-10-08T14:53:10;19.00;75.00
68215;DHT22;55036;52.138;5.236;2023-10-08T14:55:37;19.00;75.00
68215;DHT22;55036;52.138;5.236;2023-10-08T14:58:06;18.90;75.00
68215;DHT22;55036;52.138;5.236;2023-10-08T15:00:38;18.70;75.30
68215;DHT22;55036;52.138;5.236;2023-10-08T15:03:06;18.80;75.60
68215;DHT22;55036;52.138;5.236;2023-10-08T15:05:33;18.90;75.70
68215;DHT22;55036;52.138;5.236;2023-10-08T15:08:04;18.60;76.10
68215;DHT22;55036;52.138;5.236;2023-10-08T15:10:37;18.60;76.10
68215;DHT22;55036;52.138;5.236;2023-10-08T15:13:04;18.60;76.20
68215;DHT22;55036;52.138;5.236;2023-10-08T15:15:30;18.70;76.00
68215;DHT22;55036;52.138;5.236;2023-10-08T15:18:01;18.70;76.00
68215;DHT22;55036;52.138;5.236;2023-10-08T15:20:29;18.70;76.20
68215;DHT22;55036;52.138;5.236;2023-10-08T15:22:59;18.60;76.00
68215;DHT22;55036;52.138;5.236;2023-10-08T15:25:26;18.60;75.80
68215;DHT22;55036;52.138;5.236;2023-10-08T15:27:53;18.40;76.60
68215;DHT22;55036;52.138;5.236;2023-10-08T15:30:20;18.40;76.70
68215;DHT22;55036;52.138;5.236;2023-10-08T15:32:48;18.40;76.80
68215;DHT22;55036;52.138;5.236;2023-10-08T15:35:18;18.30;77.30
68215;DHT22;55036;52.138;5.236;2023-10-08T15:37:51;18.20;77.60
68215;DHT22;55036;52.138;5.236;2023-10-08T15:40:18;18.30;77.60
68215;DHT22;55036;52.138;5.236;2023-10-08T15:42:54;18.40;77.60
68215;DHT22;55036;52.138;5.236;2023-10-08T15:45:23;18.40;77.80
68215;DHT22;55036;52.138;5.236;2023-10-08T15:47:51;18.40;77.70
68215;DHT22;55036;52.138;5.236;2023-10-08T15:50:19;18.40;78.00
68215;DHT22;55036;52.138;5.236;2023-10-08T15:52:48;18.40;78.20
68215;DHT22;55036;52.138;5.236;2023-10-08T15:55:16;18.50;77.70
68215;DHT22;55036;52.138;5.236;2023-10-08T15:57:42;18.40;77.70
68215;DHT22;55036;52.138;5.236;2023-10-08T16:00:10;18.50;77.90
68215;DHT22;55036;52.138;5.236;2023-10-08T16:02:36;18.50;77.90
68215;DHT22;55036;52.138;5.236;2023-10-08T16:05:04;18.40;78.10
68215;DHT22;55036;52.138;5.236;2023-10-08T16:07:34;18.50;77.90
68215;DHT22;55036;52.138;5.236;2023-10-08T16:10:01;18.60;77.90
68215;DHT22;55036;52.138;5.236;2023-10-08T16:12:28;18.60;77.80
68215;DHT22;55036;52.138;5.236;2023-10-08T16:14:55;18.50;77.90
68215;DHT22;55036;52.138;5.236;2023-10-08T16:17:22;18.60;77.90
68215;DHT22;55036;52.138;5.236;2023-10-08T16:19:50;18.50;78.10
68215;DHT22;55036;52.138;5.236;2023-10-08T16:22:18;18.60;78.10
68215;DHT22;55036;52.138;5.236;2023-10-08T16:24:45;18.40;78.50
68215;DHT22;55036;52.138;5.236;2023-10-08T16:27:11;18.40;78.40
68215;DHT22;55036;52.138;5.236;2023-10-08T16:29:38;18.40;78.40
68215;DHT22;55036;52.138;5.236;2023-10-08T16:32:05;18.40;78.60
68215;DHT22;55036;52.138;5.236;2023-10-08T16:34:33;18.40;78.90
68215;DHT22;55036;52.138;5.236;2023-10-08T16:37:03;18.40;79.10
68215;DHT22;55036;52.138;5.236;2023-10-08T16:39:30;18.30;79.00